sensor_id;sensor_type;location;lat;lon;timestamp;P1;durP1;ratioP1;P2;durP2;ratioP2
7529;SDS011;3806;52.270;10.544;2023-02-11T00:01:10;28.50;;;13.90;;
7529;SDS011;3806;52.270;10.544;2023-02-11T00:03:41;28.83;;;14.95;;
7529;SDS011;3806;52.270;10.544;2023-02-11T00:06:07;33.67;;;14.70;;
7529;SDS011;3806;52.270;10.544;2023-02-11T00:08:35;28.85;;;14.15;;
7529;SDS011;3806;52.270;10.544;2023-02-11T00:11:00;24.00;;;14.15;;
7529;SDS011;3806;52.270;10.544;2023-02-11T00:13:26;29.52;;;15.38;;
7529;SDS011;3806;52.270;10.544;2023-02-11T00:15:52;28.38;;;16.23;;
7529;SDS011;3806;52.270;10.544;2023-02-11T00:18:18;35.03;;;15.93;;
7529;SDS011;3806;52.270;10.544;2023-02-11T00:20:44;32.67;;;15.68;;
7529;SDS011;3806;52.270;10.544;2023-02-11T00:23:10;30.13;;;16.13;;
7529;SDS011;3806;52.270;10.544;2023-02-11T00:25:40;29.48;;;14.55;;
7529;SDS011;3806;52.270;10.544;2023-02-11T00:28:06;24.88;;;15.52;;
7529;SDS011;3806;52.270;10.544;2023-02-11T00:30:33;34.80;;;17.80;;
7529;SDS011;3806;52.270;10.544;2023-02-11T00:32:59;32.30;;;16.35;;
7529;SDS011;3806;52.270;10.544;2023-02-11T00:35:25;34.35;;;16.75;;
7529;SDS011;3806;52.270;10.544;2023-02-11T00:37:52;31.88;;;17.10;;
7529;SDS011;3806;52.270;10.544;2023-02-11T00:40:18;42.72;;;18.95;;
7529;SDS011;3806;52.270;10.544;2023-02-11T00:42:44;39.65;;;17.52;;
7529;SDS011;3806;52.270;10.544;2023-02-11T00:45:10;36.40;;;17.73;;
7529;SDS011;3806;52.270;10.544;2023-02-11T00:47:36;38.00;;;19.08;;
7529;SDS011;3806;52.270;10.544;2023-02-11T00:50:02;39.72;;;18.33;;
7529;SDS011;3806;52.270;10.544;2023-02-11T00:52:30;40.67;;;20.17;;
7529;SDS011;3806;52.270;10.544;2023-02-11T00:54:56;44.60;;;20.42;;
7529;SDS011;3806;52.270;10.544;2023-02-11T00:57:22;42.95;;;20.05;;
7529;SDS011;3806;52.270;10.544;2023-02-11T00:59:48;40.63;;;19.98;;
7529;SDS011;3806;52.270;10.544;2023-02-11T01:02:14;36.42;;;18.80;;
7529;SDS011;3806;52.270;10.544;2023-02-11T01:04:40;42.40;;;20.55;;
7529;SDS011;3806;52.270;10.544;2023-02-11T01:07:06;36.22;;;18.75;;
7529;SDS011;3806;52.270;10.544;2023-02-11T01:09:31;41.92;;;19.15;;
7529;SDS011;3806;52.270;10.544;2023-02-11T01:11:57;42.00;;;20.85;;
7529;SDS011;3806;52.270;10.544;2023-02-11T01:14:23;40.70;;;20.17;;
7529;SDS011;3806;52.270;10.544;2023-02-11T01:16:49;46.53;;;21.20;;
7529;SDS011;3806;52.270;10.544;2023-02-11T01:19:14;39.97;;;19.77;;
7529;SDS011;3806;52.270;10.544;2023-02-11T01:21:40;43.85;;;19.77;;
7529;SDS011;3806;52.270;10.544;2023-02-11T01:24:05;45.80;;;20.63;;
7529;SDS011;3806;52.270;10.544;2023-02-11T01:26:31;38.33;;;18.33;;
7529;SDS011;3806;52.270;10.544;2023-02-11T01:28:57;38.15;;;20.08;;
7529;SDS011;3806;52.270;10.544;2023-02-11T01:31:24;42.47;;;20.63;;
7529;SDS011;3806;52.270;10.544;2023-02-11T01:33:50;46.85;;;19.55;;
7529;SDS011;3806;52.270;10.544;2023-02-11T01:36:16;45.75;;;21.05;;
7529;SDS011;3806;52.270;10.544;2023-02-11T01:38:41;45.72;;;20.73;;
7529;SDS011;3806;52.270;10.544;2023-02-11T01:41:09;45.95;;;22.55;;
7529;SDS011;3806;52.270;10.544;2023-02-11T01:43:39;39.67;;;18.50;;
7529;SDS011;3806;52.270;10.544;2023-02-11T01:48:52;40.97;;;19.02;;
7529;SDS011;3806;52.270;10.544;2023-02-11T01:54:09;41.47;;;20.20;;
7529;SDS011;3806;52.270;10.544;2023-02-11T01:56:58;43.28;;;21.80;;
7529;SDS011;3806;52.270;10.544;2023-02-11T01:59:51;42.38;;;20.15;;
7529;SDS011;3806;52.270;10.544;2023-02-11T02:02:26;41.78;;;20.15;;
7529;SDS011;3806;52.270;10.544;2023-02-11T02:05:04;42.90;;;20.48;;
7529;SDS011;3806;52.270;10.544;2023-02-11T02:07:40;41.60;;;22.00;;
7529;SDS011;3806;52.270;10.544;2023-02-11T02:10:13;40.92;;;20.77;;
7529;SDS011;3806;52.270;10.544;2023-02-11T02:12:42;43.67;;;21.50;;
7529;SDS011;3806;52.270;10.544;2023-02-11T02:17:58;48.17;;;20.05;;
7529;SDS011;3806;52.270;10.544;2023-02-11T02:20:41;53.08;;;21.25;;
7529;SDS011;3806;52.270;10.544;2023-02-11T02:26:18;39.67;;;19.73;;
7529;SDS011;3806;52.270;10.544;2023-02-11T02:34:36;40.10;;;20.85;;
7529;SDS011;3806;52.270;10.544;2023-02-11T02:37:26;45.85;;;21.38;;
7529;SDS011;3806;52.270;10.544;2023-02-11T02:39:55;46.05;;;21.80;;
7529;SDS011;3806;52.270;10.544;2023-02-11T02:42:23;44.53;;;21.50;;
7529;SDS011;3806;52.270;10.544;2023-02-11T02:44:50;46.45;;;21.20;;
7529;SDS011;3806;52.270;10.544;2023-02-11T02:47:17;38.42;;;20.90;;
7529;SDS011;3806;52.270;10.544;2023-02-11T02:49:43;39.88;;;19.48;;
7529;SDS011;3806;52.270;10.544;2023-02-11T02:52:24;44.97;;;21.35;;
7529;SDS011;3806;52.270;10.544;2023-02-11T02:58:12;42.15;;;20.88;;
7529;SDS011;3806;52.270;10.544;2023-02-11T03:00:53;42.42;;;20.85;;
7529;SDS011;3806;52.270;10.544;2023-02-11T03:06:16;47.70;;;22.50;;
7529;SDS011;3806;52.270;10.544;2023-02-11T03:09:09;39.08;;;19.92;;
7529;SDS011;3806;52.270;10.544;2023-02-11T03:11:40;42.80;;;19.30;;
7529;SDS011;3806;52.270;10.544;2023-02-11T03:14:08;37.88;;;20.35;;
7529;SDS011;3806;52.270;10.544;2023-02-11T03:16:36;44.97;;;20.40;;
7529;SDS011;3806;52.270;10.544;2023-02-11T03:19:19;42.35;;;20.88;;
7529;SDS011;3806;52.270;10.544;2023-02-11T03:21:48;47.45;;;19.88;;
7529;SDS011;3806;52.270;10.544;2023-02-11T03:24:18;41.65;;;20.58;;
7529;SDS011;3806;52.270;10.544;2023-02-11T03:26:49;42.47;;;21.05;;
7529;SDS011;3806;52.270;10.544;2023-02-11T03:29:22;37.72;;;19.17;;
7529;SDS011;3806;52.270;10.544;2023-02-11T03:32:53;45.95;;;21.85;;
7529;SDS011;3806;52.270;10.544;2023-02-11T03:35:03;43.47;;;20.98;;
7529;SDS011;3806;52.270;10.544;2023-02-11T03:37:37;47.67;;;21.95;;
7529;SDS011;3806;52.270;10.544;2023-02-11T03:40:09;46.60;;;22.15;;
7529;SDS011;3806;52.270;10.544;2023-02-11T03:42:39;41.00;;;20.70;;
7529;SDS011;3806;52.270;10.544;2023-02-11T03:45:09;43.10;;;20.40;;
7529;SDS011;3806;52.270;10.544;2023-02-11T03:47:40;40.13;;;21.33;;
7529;SDS011;3806;52.270;10.544;2023-02-11T03:50:10;42.33;;;20.48;;
7529;SDS011;3806;52.270;10.544;2023-02-11T03:52:38;41.95;;;21.20;;
7529;SDS011;3806;52.270;10.544;2023-02-11T03:55:08;36.55;;;20.02;;
7529;SDS011;3806;52.270;10.544;2023-02-11T03:57:37;43.28;;;19.35;;
7529;SDS011;3806;52.270;10.544;2023-02-11T04:00:03;44.55;;;21.02;;
7529;SDS011;3806;52.270;10.544;2023-02-11T04:02:31;44.92;;;20.08;;
7529;SDS011;3806;52.270;10.544;2023-02-11T04:04:58;43.45;;;20.35;;
7529;SDS011;3806;52.270;10.544;2023-02-11T04:07:24;45.05;;;20.40;;
7529;SDS011;3806;52.270;10.544;2023-02-11T04:09:50;48.88;;;21.75;;
7529;SDS011;3806;52.270;10.544;2023-02-11T04:12:16;43.17;;;19.95;;
7529;SDS011;3806;52.270;10.544;2023-02-11T04:14:41;43.95;;;19.85;;
7529;SDS011;3806;52.270;10.544;2023-02-11T04:17:07;36.15;;;19.52;;
7529;SDS011;3806;52.270;10.544;2023-02-11T04:19:33;40.80;;;19.38;;
7529;SDS011;3806;52.270;10.544;2023-02-11T04:21:58;42.70;;;19.92;;
7529;SDS011;3806;52.270;10.544;2023-02-11T04:24:24;47.40;;;20.65;;
7529;SDS011;3806;52.270;10.544;2023-02-11T04:26:50;37.63;;;19.85;;
7529;SDS011;3806;52.270;10.544;2023-02-11T04:29:16;45.67;;;19.75;;
7529;SDS011;3806;52.270;10.544;2023-02-11T04:31:42;37.78;;;18.95;;
7529;SDS011;3806;52.270;10.544;2023-02-11T04:34:07;43.15;;;19.92;;
7529;SDS011;3806;52.270;10.544;2023-02-11T04:36:33;40.45;;;20.75;;
7529;SDS011;3806;52.270;10.544;2023-02-11T04:38:59;40.25;;;18.05;;
7529;SDS011;3806;52.270;10.544;2023-02-11T04:41:24;38.60;;;20.00;;
7529;SDS011;3806;52.270;10.544;2023-02-11T04:43:50;37.22;;;18.02;;
7529;SDS011;3806;52.270;10.544;2023-02-11T04:46:15;35.63;;;19.55;;
7529;SDS011;3806;52.270;10.544;2023-02-11T04:48:41;38.92;;;20.23;;
7529;SDS011;3806;52.270;10.544;2023-02-11T04:51:07;44.55;;;21.10;;
7529;SDS011;3806;52.270;10.544;2023-02-11T04:53:32;41.03;;;20.10;;
7529;SDS011;3806;52.270;10.544;2023-02-11T04:55:58;38.00;;;19.55;;
7529;SDS011;3806;52.270;10.544;2023-02-11T04:58:23;38.67;;;19.48;;
7529;SDS011;3806;52.270;10.544;2023-02-11T05:00:49;41.15;;;19.65;;
7529;SDS011;3806;52.270;10.544;2023-02-11T05:03:15;39.58;;;19.48;;
7529;SDS011;3806;52.270;10.544;2023-02-11T05:05:41;36.15;;;19.67;;
7529;SDS011;3806;52.270;10.544;2023-02-11T05:08:07;39.13;;;19.20;;
7529;SDS011;3806;52.270;10.544;2023-02-11T05:10:34;36.50;;;18.50;;
7529;SDS011;3806;52.270;10.544;2023-02-11T05:13:00;43.17;;;18.65;;
7529;SDS011;3806;52.270;10.544;2023-02-11T05:15:26;36.42;;;18.98;;
7529;SDS011;3806;52.270;10.544;2023-02-11T05:17:52;41.20;;;20.17;;
7529;SDS011;3806;52.270;10.544;2023-02-11T05:20:18;42.30;;;19.52;;
7529;SDS011;3806;52.270;10.544;2023-02-11T05:22:44;36.58;;;19.30;;
7529;SDS011;3806;52.270;10.544;2023-02-11T05:25:10;37.15;;;18.15;;
7529;SDS011;3806;52.270;10.544;2023-02-11T05:27:35;38.60;;;18.73;;
7529;SDS011;3806;52.270;10.544;2023-02-11T05:30:01;32.63;;;16.92;;
7529;SDS011;3806;52.270;10.544;2023-02-11T05:32:27;37.83;;;18.67;;
7529;SDS011;3806;52.270;10.544;2023-02-11T05:34:53;37.50;;;19.00;;
7529;SDS011;3806;52.270;10.544;2023-02-11T05:37:18;35.42;;;18.45;;
7529;SDS011;3806;52.270;10.544;2023-02-11T05:39:44;36.50;;;18.90;;
7529;SDS011;3806;52.270;10.544;2023-02-11T05:42:09;38.65;;;20.38;;
7529;SDS011;3806;52.270;10.544;2023-02-11T05:44:35;36.17;;;19.67;;
7529;SDS011;3806;52.270;10.544;2023-02-11T05:47:01;32.17;;;17.83;;
7529;SDS011;3806;52.270;10.544;2023-02-11T05:49:26;36.28;;;19.02;;
7529;SDS011;3806;52.270;10.544;2023-02-11T05:51:52;37.75;;;18.48;;
7529;SDS011;3806;52.270;10.544;2023-02-11T05:54:17;36.42;;;18.48;;
7529;SDS011;3806;52.270;10.544;2023-02-11T05:56:43;35.47;;;18.05;;
7529;SDS011;3806;52.270;10.544;2023-02-11T05:59:08;39.47;;;18.77;;
7529;SDS011;3806;52.270;10.544;2023-02-11T06:01:37;32.95;;;16.27;;
7529;SDS011;3806;52.270;10.544;2023-02-11T06:04:03;38.20;;;17.30;;
7529;SDS011;3806;52.270;10.544;2023-02-11T06:06:28;26.98;;;17.83;;
7529;SDS011;3806;52.270;10.544;2023-02-11T06:08:54;32.53;;;16.05;;
7529;SDS011;3806;52.270;10.544;2023-02-11T06:11:20;34.25;;;16.50;;
7529;SDS011;3806;52.270;10.544;2023-02-11T06:13:45;29.73;;;16.48;;
7529;SDS011;3806;52.270;10.544;2023-02-11T06:16:11;25.67;;;14.43;;
7529;SDS011;3806;52.270;10.544;2023-02-11T06:18:37;27.33;;;15.07;;
7529;SDS011;3806;52.270;10.544;2023-02-11T06:21:05;27.67;;;16.05;;
7529;SDS011;3806;52.270;10.544;2023-02-11T06:23:32;28.73;;;15.45;;
7529;SDS011;3806;52.270;10.544;2023-02-11T06:26:05;30.30;;;15.75;;
7529;SDS011;3806;52.270;10.544;2023-02-11T06:28:32;25.83;;;14.35;;
7529;SDS011;3806;52.270;10.544;2023-02-11T06:30:58;32.50;;;14.70;;
7529;SDS011;3806;52.270;10.544;2023-02-11T06:33:30;30.02;;;15.63;;
7529;SDS011;3806;52.270;10.544;2023-02-11T06:35:56;26.25;;;13.65;;
7529;SDS011;3806;52.270;10.544;2023-02-11T06:38:22;29.27;;;15.90;;
7529;SDS011;3806;52.270;10.544;2023-02-11T06:40:48;27.48;;;14.80;;
7529;SDS011;3806;52.270;10.544;2023-02-11T06:43:14;25.75;;;14.80;;
7529;SDS011;3806;52.270;10.544;2023-02-11T06:45:40;25.38;;;14.38;;
7529;SDS011;3806;52.270;10.544;2023-02-11T06:48:06;28.52;;;14.52;;
7529;SDS011;3806;52.270;10.544;2023-02-11T06:50:31;24.25;;;14.18;;
7529;SDS011;3806;52.270;10.544;2023-02-11T06:53:00;28.08;;;16.27;;
7529;SDS011;3806;52.270;10.544;2023-02-11T06:55:26;26.42;;;14.52;;
7529;SDS011;3806;52.270;10.544;2023-02-11T06:57:52;27.13;;;15.43;;
7529;SDS011;3806;52.270;10.544;2023-02-11T07:00:17;28.83;;;14.63;;
7529;SDS011;3806;52.270;10.544;2023-02-11T07:02:43;25.98;;;15.55;;
7529;SDS011;3806;52.270;10.544;2023-02-11T07:05:09;28.63;;;14.70;;
7529;SDS011;3806;52.270;10.544;2023-02-11T07:07:35;29.70;;;14.82;;
7529;SDS011;3806;52.270;10.544;2023-02-11T07:10:01;31.38;;;15.27;;
7529;SDS011;3806;52.270;10.544;2023-02-11T07:12:28;28.73;;;16.02;;
7529;SDS011;3806;52.270;10.544;2023-02-11T07:14:55;28.98;;;15.88;;
7529;SDS011;3806;52.270;10.544;2023-02-11T07:17:21;31.38;;;16.52;;
7529;SDS011;3806;52.270;10.544;2023-02-11T07:19:46;36.65;;;16.60;;
7529;SDS011;3806;52.270;10.544;2023-02-11T07:22:12;28.20;;;14.98;;
7529;SDS011;3806;52.270;10.544;2023-02-11T07:24:38;27.48;;;15.02;;
7529;SDS011;3806;52.270;10.544;2023-02-11T07:27:03;31.95;;;16.15;;
7529;SDS011;3806;52.270;10.544;2023-02-11T07:29:29;34.10;;;16.65;;
7529;SDS011;3806;52.270;10.544;2023-02-11T07:31:55;30.92;;;16.60;;
7529;SDS011;3806;52.270;10.544;2023-02-11T07:34:20;33.65;;;16.55;;
7529;SDS011;3806;52.270;10.544;2023-02-11T07:36:46;30.55;;;16.95;;
7529;SDS011;3806;52.270;10.544;2023-02-11T07:39:13;30.23;;;16.73;;
7529;SDS011;3806;52.270;10.544;2023-02-11T07:41:38;29.30;;;17.63;;
7529;SDS011;3806;52.270;10.544;2023-02-11T07:44:04;37.08;;;16.83;;
7529;SDS011;3806;52.270;10.544;2023-02-11T07:46:30;31.45;;;15.80;;
7529;SDS011;3806;52.270;10.544;2023-02-11T07:48:56;30.63;;;14.88;;
7529;SDS011;3806;52.270;10.544;2023-02-11T07:51:23;37.75;;;17.48;;
7529;SDS011;3806;52.270;10.544;2023-02-11T07:53:51;30.42;;;16.33;;
7529;SDS011;3806;52.270;10.544;2023-02-11T07:56:17;27.48;;;15.57;;
7529;SDS011;3806;52.270;10.544;2023-02-11T07:58:44;32.05;;;15.82;;
7529;SDS011;3806;52.270;10.544;2023-02-11T08:01:16;34.83;;;16.60;;
7529;SDS011;3806;52.270;10.544;2023-02-11T08:03:49;35.30;;;16.90;;
7529;SDS011;3806;52.270;10.544;2023-02-11T08:06:16;32.38;;;17.83;;
7529;SDS011;3806;52.270;10.544;2023-02-11T08:08:44;34.58;;;17.63;;
7529;SDS011;3806;52.270;10.544;2023-02-11T08:11:11;32.70;;;16.13;;
7529;SDS011;3806;52.270;10.544;2023-02-11T08:13:39;31.55;;;19.20;;
7529;SDS011;3806;52.270;10.544;2023-02-11T08:16:05;32.45;;;16.95;;
7529;SDS011;3806;52.270;10.544;2023-02-11T08:18:31;31.90;;;16.92;;
7529;SDS011;3806;52.270;10.544;2023-02-11T08:21:08;37.70;;;17.75;;
7529;SDS011;3806;52.270;10.544;2023-02-11T08:26:01;31.27;;;16.55;;
7529;SDS011;3806;52.270;10.544;2023-02-11T08:28:27;38.92;;;16.80;;
7529;SDS011;3806;52.270;10.544;2023-02-11T08:30:53;31.20;;;16.75;;
7529;SDS011;3806;52.270;10.544;2023-02-11T08:33:19;42.28;;;19.13;;
7529;SDS011;3806;52.270;10.544;2023-02-11T08:35:44;39.50;;;16.73;;
7529;SDS011;3806;52.270;10.544;2023-02-11T08:38:10;32.38;;;17.08;;
7529;SDS011;3806;52.270;10.544;2023-02-11T08:40:35;32.20;;;16.55;;
7529;SDS011;3806;52.270;10.544;2023-02-11T08:43:01;36.33;;;17.52;;
7529;SDS011;3806;52.270;10.544;2023-02-11T08:45:27;39.53;;;17.63;;
7529;SDS011;3806;52.270;10.544;2023-02-11T08:47:52;30.10;;;17.17;;
7529;SDS011;3806;52.270;10.544;2023-02-11T08:50:18;35.38;;;16.50;;
7529;SDS011;3806;52.270;10.544;2023-02-11T08:52:43;34.47;;;17.00;;
7529;SDS011;3806;52.270;10.544;2023-02-11T08:55:09;34.13;;;17.58;;
7529;SDS011;3806;52.270;10.544;2023-02-11T08:57:35;34.33;;;19.05;;
7529;SDS011;3806;52.270;10.544;2023-02-11T09:00:00;36.15;;;18.50;;
7529;SDS011;3806;52.270;10.544;2023-02-11T09:02:26;42.00;;;18.40;;
7529;SDS011;3806;52.270;10.544;2023-02-11T09:04:52;35.00;;;17.02;;
7529;SDS011;3806;52.270;10.544;2023-02-11T09:07:18;35.47;;;18.50;;
7529;SDS011;3806;52.270;10.544;2023-02-11T09:09:43;33.97;;;17.33;;
7529;SDS011;3806;52.270;10.544;2023-02-11T09:12:09;35.58;;;18.40;;
7529;SDS011;3806;52.270;10.544;2023-02-11T09:14:34;34.60;;;17.13;;
7529;SDS011;3806;52.270;10.544;2023-02-11T09:17:00;31.80;;;17.40;;
7529;SDS011;3806;52.270;10.544;2023-02-11T09:19:25;35.50;;;18.05;;
7529;SDS011;3806;52.270;10.544;2023-02-11T09:21:51;35.20;;;18.27;;
7529;SDS011;3806;52.270;10.544;2023-02-11T09:24:17;35.55;;;18.20;;
7529;SDS011;3806;52.270;10.544;2023-02-11T09:26:43;36.97;;;18.48;;
7529;SDS011;3806;52.270;10.544;2023-02-11T09:29:08;33.50;;;17.48;;
7529;SDS011;3806;52.270;10.544;2023-02-11T09:31:34;33.47;;;16.30;;
7529;SDS011;3806;52.270;10.544;2023-02-11T09:34:01;38.33;;;17.35;;
7529;SDS011;3806;52.270;10.544;2023-02-11T09:36:30;33.55;;;17.10;;
7529;SDS011;3806;52.270;10.544;2023-02-11T09:38:58;34.42;;;17.05;;
7529;SDS011;3806;52.270;10.544;2023-02-11T09:44:30;35.80;;;18.70;;
7529;SDS011;3806;52.270;10.544;2023-02-11T09:47:02;31.77;;;16.08;;
7529;SDS011;3806;52.270;10.544;2023-02-11T09:49:32;30.85;;;17.58;;
7529;SDS011;3806;52.270;10.544;2023-02-11T09:52:06;38.38;;;20.23;;
7529;SDS011;3806;52.270;10.544;2023-02-11T09:55:21;37.88;;;19.52;;
7529;SDS011;3806;52.270;10.544;2023-02-11T09:57:33;38.90;;;17.17;;
7529;SDS011;3806;52.270;10.544;2023-02-11T10:00:01;37.65;;;19.17;;
7529;SDS011;3806;52.270;10.544;2023-02-11T10:02:45;36.78;;;18.02;;
7529;SDS011;3806;52.270;10.544;2023-02-11T10:05:33;35.17;;;17.42;;
7529;SDS011;3806;52.270;10.544;2023-02-11T10:11:07;37.85;;;18.27;;
7529;SDS011;3806;52.270;10.544;2023-02-11T10:16:27;37.63;;;17.60;;
7529;SDS011;3806;52.270;10.544;2023-02-11T10:19:40;33.58;;;16.67;;
7529;SDS011;3806;52.270;10.544;2023-02-11T10:22:17;35.80;;;17.35;;
7529;SDS011;3806;52.270;10.544;2023-02-11T10:24:51;31.40;;;17.20;;
7529;SDS011;3806;52.270;10.544;2023-02-11T10:27:26;37.50;;;18.40;;
7529;SDS011;3806;52.270;10.544;2023-02-11T10:30:03;36.28;;;17.88;;
7529;SDS011;3806;52.270;10.544;2023-02-11T10:35:18;36.90;;;19.02;;
7529;SDS011;3806;52.270;10.544;2023-02-11T10:37:46;34.88;;;16.73;;
7529;SDS011;3806;52.270;10.544;2023-02-11T10:40:13;36.42;;;18.75;;
7529;SDS011;3806;52.270;10.544;2023-02-11T10:42:45;35.15;;;16.40;;
7529;SDS011;3806;52.270;10.544;2023-02-11T10:45:24;32.65;;;17.35;;
7529;SDS011;3806;52.270;10.544;2023-02-11T10:47:51;36.88;;;18.30;;
7529;SDS011;3806;52.270;10.544;2023-02-11T10:50:27;37.22;;;17.98;;
7529;SDS011;3806;52.270;10.544;2023-02-11T10:53:10;39.55;;;18.10;;
7529;SDS011;3806;52.270;10.544;2023-02-11T10:55:47;30.70;;;16.63;;
7529;SDS011;3806;52.270;10.544;2023-02-11T10:58:21;40.25;;;18.00;;
7529;SDS011;3806;52.270;10.544;2023-02-11T11:01:06;36.85;;;16.50;;
7529;SDS011;3806;52.270;10.544;2023-02-11T11:03:33;38.33;;;17.55;;
7529;SDS011;3806;52.270;10.544;2023-02-11T11:06:04;37.00;;;18.45;;
7529;SDS011;3806;52.270;10.544;2023-02-11T11:08:37;33.92;;;17.92;;
7529;SDS011;3806;52.270;10.544;2023-02-11T11:11:12;37.40;;;16.80;;
7529;SDS011;3806;52.270;10.544;2023-02-11T11:16:24;37.88;;;16.80;;
7529;SDS011;3806;52.270;10.544;2023-02-11T11:24:13;32.17;;;16.17;;
7529;SDS011;3806;52.270;10.544;2023-02-11T11:26:42;32.60;;;16.83;;
7529;SDS011;3806;52.270;10.544;2023-02-11T11:29:33;37.80;;;17.73;;
7529;SDS011;3806;52.270;10.544;2023-02-11T11:32:15;32.00;;;16.73;;
7529;SDS011;3806;52.270;10.544;2023-02-11T11:34:48;30.00;;;15.63;;
7529;SDS011;3806;52.270;10.544;2023-02-11T11:37:34;36.08;;;16.10;;
7529;SDS011;3806;52.270;10.544;2023-02-11T11:40:07;34.10;;;17.05;;
7529;SDS011;3806;52.270;10.544;2023-02-11T11:42:45;30.48;;;15.30;;
7529;SDS011;3806;52.270;10.544;2023-02-11T11:45:25;32.08;;;16.70;;
7529;SDS011;3806;52.270;10.544;2023-02-11T11:47:52;34.63;;;16.48;;
7529;SDS011;3806;52.270;10.544;2023-02-11T11:50:42;30.10;;;15.25;;
7529;SDS011;3806;52.270;10.544;2023-02-11T11:53:16;26.52;;;14.93;;
7529;SDS011;3806;52.270;10.544;2023-02-11T11:58:32;31.95;;;14.85;;
7529;SDS011;3806;52.270;10.544;2023-02-11T12:12:50;23.70;;;12.38;;
7529;SDS011;3806;52.270;10.544;2023-02-11T12:21:59;25.75;;;12.40;;
7529;SDS011;3806;52.270;10.544;2023-02-11T12:27:07;26.25;;;13.68;;
7529;SDS011;3806;52.270;10.544;2023-02-11T12:35:17;26.92;;;12.93;;
7529;SDS011;3806;52.270;10.544;2023-02-11T12:38:04;23.48;;;13.13;;
7529;SDS011;3806;52.270;10.544;2023-02-11T12:43:30;18.80;;;11.52;;
7529;SDS011;3806;52.270;10.544;2023-02-11T12:52:01;23.27;;;11.85;;
7529;SDS011;3806;52.270;10.544;2023-02-11T12:54:53;22.52;;;11.70;;
7529;SDS011;3806;52.270;10.544;2023-02-11T12:57:33;22.73;;;11.75;;
7529;SDS011;3806;52.270;10.544;2023-02-11T13:03:04;23.00;;;11.75;;
7529;SDS011;3806;52.270;10.544;2023-02-11T13:05:47;23.25;;;10.75;;
7529;SDS011;3806;52.270;10.544;2023-02-11T13:08:16;29.85;;;12.60;;
7529;SDS011;3806;52.270;10.544;2023-02-11T13:10:51;22.80;;;11.07;;
7529;SDS011;3806;52.270;10.544;2023-02-11T13:13:21;22.13;;;12.27;;
7529;SDS011;3806;52.270;10.544;2023-02-11T13:15:55;22.05;;;11.75;;
7529;SDS011;3806;52.270;10.544;2023-02-11T13:18:41;22.15;;;11.05;;
7529;SDS011;3806;52.270;10.544;2023-02-11T13:23:56;21.85;;;11.32;;
7529;SDS011;3806;52.270;10.544;2023-02-11T13:31:51;18.90;;;10.63;;
7529;SDS011;3806;52.270;10.544;2023-02-11T13:34:21;18.40;;;11.25;;
7529;SDS011;3806;52.270;10.544;2023-02-11T13:40:03;21.40;;;10.15;;
7529;SDS011;3806;52.270;10.544;2023-02-11T13:42:32;22.15;;;11.10;;
7529;SDS011;3806;52.270;10.544;2023-02-11T13:45:16;19.33;;;10.10;;
7529;SDS011;3806;52.270;10.544;2023-02-11T13:47:55;24.92;;;12.02;;
7529;SDS011;3806;52.270;10.544;2023-02-11T13:50:22;20.85;;;10.98;;
7529;SDS011;3806;52.270;10.544;2023-02-11T13:52:55;15.90;;;9.27;;
7529;SDS011;3806;52.270;10.544;2023-02-11T13:55:26;17.02;;;9.23;;
7529;SDS011;3806;52.270;10.544;2023-02-11T14:08:58;19.17;;;9.88;;
7529;SDS011;3806;52.270;10.544;2023-02-11T14:14:21;21.65;;;9.95;;
7529;SDS011;3806;52.270;10.544;2023-02-11T14:17:34;17.67;;;9.68;;
7529;SDS011;3806;52.270;10.544;2023-02-11T14:22:12;22.17;;;10.18;;
7529;SDS011;3806;52.270;10.544;2023-02-11T14:25:02;21.15;;;11.48;;
7529;SDS011;3806;52.270;10.544;2023-02-11T14:27:30;19.27;;;10.27;;
7529;SDS011;3806;52.270;10.544;2023-02-11T14:33:10;18.33;;;9.90;;
7529;SDS011;3806;52.270;10.544;2023-02-11T14:41:40;21.27;;;10.10;;
7529;SDS011;3806;52.270;10.544;2023-02-11T14:44:13;23.60;;;11.50;;
7529;SDS011;3806;52.270;10.544;2023-02-11T14:46:45;22.85;;;10.77;;
7529;SDS011;3806;52.270;10.544;2023-02-11T14:49:26;15.98;;;10.38;;
7529;SDS011;3806;52.270;10.544;2023-02-11T14:51:57;20.17;;;10.85;;
7529;SDS011;3806;52.270;10.544;2023-02-11T14:54:29;22.20;;;12.50;;
7529;SDS011;3806;52.270;10.544;2023-02-11T14:57:06;20.23;;;10.20;;
7529;SDS011;3806;52.270;10.544;2023-02-11T14:59:32;25.13;;;11.35;;
7529;SDS011;3806;52.270;10.544;2023-02-11T15:01:57;20.63;;;10.95;;
7529;SDS011;3806;52.270;10.544;2023-02-11T15:06:50;24.45;;;11.82;;
7529;SDS011;3806;52.270;10.544;2023-02-11T15:11:51;26.27;;;11.32;;
7529;SDS011;3806;52.270;10.544;2023-02-11T15:16:57;23.38;;;12.35;;
7529;SDS011;3806;52.270;10.544;2023-02-11T15:19:35;27.47;;;12.70;;
7529;SDS011;3806;52.270;10.544;2023-02-11T15:22:03;20.92;;;11.27;;
7529;SDS011;3806;52.270;10.544;2023-02-11T15:24:32;26.50;;;12.70;;
7529;SDS011;3806;52.270;10.544;2023-02-11T15:29:39;20.45;;;11.50;;
7529;SDS011;3806;52.270;10.544;2023-02-11T15:32:13;28.30;;;11.52;;
7529;SDS011;3806;52.270;10.544;2023-02-11T15:34:41;19.95;;;11.52;;
7529;SDS011;3806;52.270;10.544;2023-02-11T15:37:09;21.63;;;11.40;;
7529;SDS011;3806;52.270;10.544;2023-02-11T15:39:45;23.05;;;10.98;;
7529;SDS011;3806;52.270;10.544;2023-02-11T15:42:29;28.02;;;12.15;;
7529;SDS011;3806;52.270;10.544;2023-02-11T15:47:49;19.38;;;10.45;;
7529;SDS011;3806;52.270;10.544;2023-02-11T15:50:36;21.05;;;11.90;;
7529;SDS011;3806;52.270;10.544;2023-02-11T15:53:15;22.85;;;11.90;;
7529;SDS011;3806;52.270;10.544;2023-02-11T15:58:50;20.17;;;11.70;;
7529;SDS011;3806;52.270;10.544;2023-02-11T16:01:27;26.75;;;12.18;;
7529;SDS011;3806;52.270;10.544;2023-02-11T16:03:55;21.73;;;12.43;;
7529;SDS011;3806;52.270;10.544;2023-02-11T16:06:24;26.83;;;13.35;;
7529;SDS011;3806;52.270;10.544;2023-02-11T16:09:19;24.42;;;12.13;;
7529;SDS011;3806;52.270;10.544;2023-02-11T16:11:55;24.40;;;12.38;;
7529;SDS011;3806;52.270;10.544;2023-02-11T16:14:27;21.40;;;12.63;;
7529;SDS011;3806;52.270;10.544;2023-02-11T16:17:07;25.60;;;13.25;;
7529;SDS011;3806;52.270;10.544;2023-02-11T16:19:33;25.67;;;12.90;;
7529;SDS011;3806;52.270;10.544;2023-02-11T16:22:01;25.10;;;12.25;;
7529;SDS011;3806;52.270;10.544;2023-02-11T16:24:33;27.08;;;12.55;;
7529;SDS011;3806;52.270;10.544;2023-02-11T16:27:05;24.88;;;12.90;;
7529;SDS011;3806;52.270;10.544;2023-02-11T16:29:43;23.98;;;12.82;;
7529;SDS011;3806;52.270;10.544;2023-02-11T16:32:15;27.88;;;13.38;;
7529;SDS011;3806;52.270;10.544;2023-02-11T16:34:46;25.00;;;12.50;;
7529;SDS011;3806;52.270;10.544;2023-02-11T16:37:12;27.48;;;13.20;;
7529;SDS011;3806;52.270;10.544;2023-02-11T16:39:38;18.10;;;12.10;;
7529;SDS011;3806;52.270;10.544;2023-02-11T16:42:04;29.65;;;13.73;;
7529;SDS011;3806;52.270;10.544;2023-02-11T16:44:31;27.67;;;14.30;;
7529;SDS011;3806;52.270;10.544;2023-02-11T16:46:57;31.58;;;13.32;;
7529;SDS011;3806;52.270;10.544;2023-02-11T16:49:25;27.63;;;14.30;;
7529;SDS011;3806;52.270;10.544;2023-02-11T16:51:54;27.83;;;13.20;;
7529;SDS011;3806;52.270;10.544;2023-02-11T16:54:25;27.30;;;13.48;;
7529;SDS011;3806;52.270;10.544;2023-02-11T16:56:51;27.60;;;13.23;;
7529;SDS011;3806;52.270;10.544;2023-02-11T16:59:16;25.88;;;14.20;;
7529;SDS011;3806;52.270;10.544;2023-02-11T17:01:42;31.73;;;13.45;;
7529;SDS011;3806;52.270;10.544;2023-02-11T17:04:27;31.00;;;15.75;;
7529;SDS011;3806;52.270;10.544;2023-02-11T17:06:54;29.35;;;13.60;;
7529;SDS011;3806;52.270;10.544;2023-02-11T17:09:21;26.88;;;14.57;;
7529;SDS011;3806;52.270;10.544;2023-02-11T17:11:49;26.40;;;13.52;;